createdAt,value
2019-05-16T00:00:29.146Z,8.70
2019-05-16T00:01:04.189Z,8.70
2019-05-16T00:01:39.098Z,8.70
2019-05-16T00:02:18.632Z,8.70
2019-05-16T00:02:53.525Z,8.70
2019-05-16T00:03:28.404Z,8.70
2019-05-16T00:04:03.568Z,8.70
2019-05-16T00:04:38.334Z,8.70
2019-05-16T00:05:13.641Z,8.70
2019-05-16T00:05:54.227Z,8.70
2019-05-16T00:06:25.174Z,8.70
2019-05-16T00:07:00.113Z,8.60
2019-05-16T00:07:35.256Z,8.70
2019-05-16T00:08:12.606Z,8.70
2019-05-16T00:08:48.104Z,8.70
2019-05-16T00:09:23.525Z,8.70
2019-05-16T00:09:59.074Z,8.70
2019-05-16T00:10:34.057Z,8.70
2019-05-16T00:11:09.285Z,8.70
2019-05-16T00:11:44.112Z,8.70
2019-05-16T00:12:19.063Z,8.70
2019-05-16T00:12:54.410Z,8.70
2019-05-16T00:13:29.180Z,8.70
2019-05-16T00:14:04.312Z,8.70
2019-05-16T00:14:39.396Z,8.70
2019-05-16T00:15:15.008Z,8.70
2019-05-16T00:15:49.960Z,8.70
2019-05-16T00:16:25.089Z,8.70
2019-05-16T00:16:59.871Z,8.70
2019-05-16T00:17:34.816Z,8.70
2019-05-16T00:18:09.888Z,8.80
2019-05-16T00:18:44.687Z,8.80
2019-05-16T00:19:19.689Z,8.80
2019-05-16T00:19:54.915Z,8.80
2019-05-16T00:20:29.832Z,8.80
2019-05-16T00:21:04.945Z,8.80
2019-05-16T00:21:40.007Z,8.80
2019-05-16T00:22:14.780Z,8.80
2019-05-16T00:22:49.725Z,8.80
2019-05-16T00:23:24.777Z,8.80
2019-05-16T00:23:59.571Z,8.80
2019-05-16T00:24:34.559Z,8.90
2019-05-16T00:25:11.107Z,8.90
2019-05-16T00:25:47.702Z,8.90
2019-05-16T00:26:22.371Z,8.90
2019-05-16T00:26:58.025Z,8.90
2019-05-16T00:27:32.872Z,8.90
2019-05-16T00:28:08.991Z,8.90
2019-05-16T00:28:44.169Z,8.80
2019-05-16T00:29:18.946Z,8.90
2019-05-16T00:29:57.983Z,8.90
2019-05-16T00:30:32.369Z,8.80
2019-05-16T00:31:08.618Z,8.80
2019-05-16T00:31:43.841Z,8.80
2019-05-16T00:32:19.202Z,8.80
2019-05-16T00:32:54.080Z,8.80
2019-05-16T00:33:29.108Z,8.80
2019-05-16T00:34:04.329Z,8.70
2019-05-16T00:34:39.116Z,8.70
2019-05-16T00:35:14.299Z,8.70
2019-05-16T00:36:02.128Z,8.70
2019-05-16T00:36:27.789Z,8.70
2019-05-16T00:37:02.927Z,8.70
2019-05-16T00:37:39.033Z,8.70
2019-05-16T00:38:14.129Z,8.70
2019-05-16T00:38:49.067Z,8.70
2019-05-16T00:39:24.122Z,8.70
2019-05-16T00:39:58.961Z,8.70
2019-05-16T00:40:34.066Z,8.70
2019-05-16T00:41:09.296Z,8.70
2019-05-16T00:41:44.122Z,8.70
2019-05-16T00:42:19.104Z,8.70
2019-05-16T00:42:54.539Z,8.70
2019-05-16T00:43:29.231Z,8.70
2019-05-16T00:44:04.504Z,8.70
2019-05-16T00:44:39.621Z,8.70
2019-05-16T00:45:14.643Z,8.60
2019-05-16T00:45:49.941Z,8.60
2019-05-16T00:46:27.886Z,8.60
2019-05-16T00:47:01.408Z,8.60
2019-05-16T00:47:38.683Z,8.60
2019-05-16T00:48:13.346Z,8.60
2019-05-16T00:48:48.746Z,8.50
2019-05-16T00:49:23.868Z,8.50
2019-05-16T00:49:58.927Z,8.50
2019-05-16T00:50:33.698Z,8.50
2019-05-16T00:51:08.706Z,8.40
2019-05-16T00:51:43.874Z,8.40
2019-05-16T00:52:18.572Z,8.40
2019-05-16T00:52:53.548Z,8.40
2019-05-16T00:53:28.933Z,8.40
2019-05-16T00:54:03.917Z,8.40
2019-05-16T00:54:38.870Z,8.40
2019-05-16T00:55:14.177Z,8.40
2019-05-16T00:55:50.737Z,8.40
2019-05-16T00:56:28.870Z,8.40
2019-05-16T00:57:05.358Z,8.40
2019-05-16T00:57:41.161Z,8.40
2019-05-16T00:58:18.805Z,8.40
2019-05-16T00:58:55.098Z,8.40
2019-05-16T00:59:30.246Z,8.40
2019-05-16T01:00:08.750Z,8.40
2019-05-16T01:00:49.441Z,8.40
2019-05-16T01:01:23.086Z,8.40
2019-05-16T01:01:58.772Z,8.40
2019-05-16T01:02:34.101Z,8.40
2019-05-16T01:03:08.832Z,8.40
2019-05-16T01:03:43.740Z,8.40
2019-05-16T01:04:18.857Z,8.40
2019-05-16T01:04:53.604Z,8.50
2019-05-16T01:05:28.526Z,8.40
2019-05-16T01:06:15.641Z,8.40
2019-05-16T01:06:40.288Z,8.50
2019-05-16T01:07:15.149Z,8.50
2019-05-16T01:07:50.232Z,8.50
2019-05-16T01:08:24.954Z,8.40
2019-05-16T01:08:59.840Z,8.40
2019-05-16T01:09:34.922Z,8.40
2019-05-16T01:10:09.851Z,8.40
2019-05-16T01:10:44.789Z,8.40
2019-05-16T01:11:20.075Z,8.40
2019-05-16T01:11:54.780Z,8.40
2019-05-16T01:12:29.664Z,8.40
2019-05-16T01:13:04.923Z,8.40
2019-05-16T01:13:39.624Z,8.40
2019-05-16T01:14:14.583Z,8.40
2019-05-16T01:14:49.843Z,8.40
2019-05-16T01:15:24.644Z,8.50
2019-05-16T01:15:59.601Z,8.50
2019-05-16T01:16:34.849Z,8.50
2019-05-16T01:17:09.584Z,8.50
2019-05-16T01:17:44.517Z,8.50
2019-05-16T01:18:19.581Z,8.50
2019-05-16T01:18:54.357Z,8.40
2019-05-16T01:19:29.304Z,8.40
2019-05-16T01:20:08.335Z,8.40
2019-05-16T01:20:42.783Z,8.40
2019-05-16T01:21:18.577Z,8.40
2019-05-16T01:21:54.028Z,8.50
2019-05-16T01:22:29.074Z,8.40
2019-05-16T01:23:04.069Z,8.50
2019-05-16T01:23:39.202Z,8.50
2019-05-16T01:24:14.175Z,8.50
2019-05-16T01:24:49.343Z,8.50
2019-05-16T01:25:24.494Z,8.50
2019-05-16T01:25:59.269Z,8.50
2019-05-16T01:26:34.224Z,8.50
2019-05-16T01:27:09.392Z,8.50
2019-05-16T01:27:44.187Z,8.50
2019-05-16T01:28:19.427Z,8.40
2019-05-16T01:28:54.500Z,8.40
2019-05-16T01:29:29.276Z,8.50
2019-05-16T01:30:08.851Z,8.50
2019-05-16T01:30:43.341Z,8.40
2019-05-16T01:31:19.137Z,8.40
2019-05-16T01:31:54.419Z,8.40
2019-05-16T01:32:32.181Z,8.40
2019-05-16T01:33:08.653Z,8.40
2019-05-16T01:33:42.534Z,8.40
2019-05-16T01:34:18.124Z,8.40
2019-05-16T01:34:53.018Z,8.40
2019-05-16T01:35:28.015Z,8.30
2019-05-16T01:36:03.320Z,8.30
2019-05-16T01:36:40.809Z,8.30
2019-05-16T01:37:14.741Z,8.30
2019-05-16T01:37:49.902Z,8.30
2019-05-16T01:38:24.597Z,8.30
2019-05-16T01:38:59.479Z,8.30
2019-05-16T01:39:34.964Z,8.30
2019-05-16T01:40:09.808Z,8.30
2019-05-16T01:40:44.774Z,8.30
2019-05-16T01:41:19.886Z,8.30
2019-05-16T01:41:54.582Z,8.30
2019-05-16T01:42:29.460Z,8.40
2019-05-16T01:43:04.630Z,8.40
2019-05-16T01:43:39.460Z,8.40
2019-05-16T01:44:14.339Z,8.40
2019-05-16T01:44:49.404Z,8.40
2019-05-16T01:45:24.563Z,8.40
2019-05-16T01:45:59.428Z,8.40
2019-05-16T01:46:34.531Z,8.40
2019-05-16T01:47:09.235Z,8.40
2019-05-16T01:47:44.116Z,8.40
2019-05-16T01:48:19.505Z,8.40
2019-05-16T01:48:54.387Z,8.40
2019-05-16T01:49:29.357Z,8.40
2019-05-16T01:50:09.271Z,8.40
2019-05-16T01:50:43.975Z,8.40
2019-05-16T01:51:18.922Z,8.40
2019-05-16T01:51:54.078Z,8.40
2019-05-16T01:52:29.188Z,8.40
2019-05-16T01:53:04.215Z,8.40
2019-05-16T01:53:39.667Z,8.40
2019-05-16T01:54:14.431Z,8.40
2019-05-16T01:54:49.316Z,8.40
2019-05-16T01:55:24.510Z,8.40
2019-05-16T01:55:59.557Z,8.40
2019-05-16T01:56:34.433Z,8.40
2019-05-16T01:57:09.569Z,8.40
2019-05-16T01:57:44.332Z,8.40
2019-05-16T01:58:20.468Z,8.40
2019-05-16T01:58:58.109Z,8.40
2019-05-16T01:59:32.153Z,8.40
2019-05-16T02:00:08.575Z,8.40
2019-05-16T02:00:52.115Z,8.40
2019-05-16T02:01:20.377Z,8.40
2019-05-16T02:01:58.686Z,8.40
2019-05-16T02:02:32.155Z,8.40
2019-05-16T02:03:08.268Z,8.40
2019-05-16T02:03:43.381Z,8.40
2019-05-16T02:04:18.548Z,8.40
2019-05-16T02:04:53.414Z,8.40
2019-05-16T02:05:28.457Z,8.40
2019-05-16T02:06:03.526Z,8.40
2019-05-16T02:06:50.431Z,8.30
2019-05-16T02:07:14.905Z,8.40
2019-05-16T02:07:49.965Z,8.40
2019-05-16T02:08:24.745Z,8.30
2019-05-16T02:08:59.783Z,8.30
2019-05-16T02:09:35.296Z,8.30
2019-05-16T02:10:10.708Z,8.30
2019-05-16T02:10:48.296Z,8.30
2019-05-16T02:11:23.558Z,8.30
2019-05-16T02:11:58.922Z,8.30
2019-05-16T02:12:33.973Z,8.30
2019-05-16T02:13:09.161Z,8.30
2019-05-16T02:13:43.995Z,8.30
2019-05-16T02:14:18.885Z,8.30
2019-05-16T02:14:53.998Z,8.30
2019-05-16T02:15:28.783Z,8.30
2019-05-16T02:16:03.732Z,8.30
2019-05-16T02:16:39.244Z,8.30
2019-05-16T02:17:14.037Z,8.30
2019-05-16T02:17:49.112Z,8.30
2019-05-16T02:18:24.624Z,8.30
2019-05-16T02:18:59.469Z,8.30
2019-05-16T02:19:34.356Z,8.30
2019-05-16T02:20:14.124Z,8.30
2019-05-16T02:20:48.901Z,8.30
2019-05-16T02:21:24.238Z,8.30
2019-05-16T02:21:59.746Z,8.30
2019-05-16T02:22:34.567Z,8.30
2019-05-16T02:23:09.458Z,8.30
2019-05-16T02:23:44.535Z,8.30
2019-05-16T02:24:19.340Z,8.30
2019-05-16T02:24:54.371Z,8.30
2019-05-16T02:25:29.469Z,8.30
2019-05-16T02:26:04.174Z,8.30
2019-05-16T02:26:39.079Z,8.30
2019-05-16T02:27:14.205Z,8.30
2019-05-16T02:27:49.054Z,8.30
2019-05-16T02:28:30.372Z,8.30
2019-05-16T02:29:00.997Z,8.30
2019-05-16T02:29:35.783Z,8.30
2019-05-16T02:30:12.520Z,8.30
2019-05-16T02:30:51.279Z,8.30
2019-05-16T02:31:24.515Z,8.30
2019-05-16T02:32:02.056Z,8.40
2019-05-16T02:32:37.419Z,8.30
2019-05-16T02:33:12.190Z,8.20
2019-05-16T02:33:47.061Z,8.20
2019-05-16T02:34:22.130Z,8.20
2019-05-16T02:34:56.897Z,8.20
2019-05-16T02:35:31.930Z,8.20
2019-05-16T02:36:10.651Z,8.20
2019-05-16T02:36:43.634Z,8.20
2019-05-16T02:37:25.954Z,8.20
2019-05-16T02:37:55.566Z,8.20
2019-05-16T02:38:31.773Z,8.20
2019-05-16T02:39:11.186Z,8.30
2019-05-16T02:39:45.577Z,8.30
2019-05-16T02:40:22.249Z,8.30
2019-05-16T02:40:57.212Z,8.30
2019-05-16T02:41:32.420Z,8.30
2019-05-16T02:42:07.222Z,8.30
2019-05-16T02:42:42.592Z,8.30
2019-05-16T02:43:17.829Z,8.30
2019-05-16T02:43:52.771Z,8.30
2019-05-16T02:44:27.737Z,8.40
2019-05-16T02:45:02.949Z,8.40
2019-05-16T02:45:41.346Z,8.40
2019-05-16T02:46:14.484Z,8.30
2019-05-16T02:46:50.822Z,8.30
2019-05-16T02:47:25.753Z,8.30
2019-05-16T02:48:01.465Z,8.30
2019-05-16T02:48:36.822Z,8.30
2019-05-16T02:49:11.845Z,8.30
2019-05-16T02:49:46.883Z,8.30
2019-05-16T02:50:22.584Z,8.30
2019-05-16T02:50:57.468Z,8.30
2019-05-16T02:51:32.337Z,8.40
2019-05-16T02:52:10.802Z,8.30
2019-05-16T02:52:44.844Z,8.30
2019-05-16T02:53:22.390Z,8.30
2019-05-16T02:53:56.982Z,8.40
2019-05-16T02:54:32.768Z,8.40
2019-05-16T02:55:11.315Z,8.40
2019-05-16T02:55:44.685Z,8.40
2019-05-16T02:56:21.231Z,8.40
2019-05-16T02:56:56.091Z,8.40
2019-05-16T02:57:31.824Z,8.40
2019-05-16T02:58:06.798Z,8.40
2019-05-16T02:58:44.863Z,8.30
2019-05-16T02:59:20.675Z,8.30
2019-05-16T02:59:55.034Z,8.40
2019-05-16T03:00:42.031Z,8.30
2019-05-16T03:01:16.954Z,8.30
2019-05-16T03:01:52.315Z,8.30
2019-05-16T03:02:31.026Z,8.30
2019-05-16T03:03:05.616Z,8.30
2019-05-16T03:03:43.920Z,8.30
2019-05-16T03:04:17.254Z,8.30
2019-05-16T03:04:52.534Z,8.30
2019-05-16T03:05:27.589Z,8.30
2019-05-16T03:06:03.192Z,8.30
2019-05-16T03:06:41.025Z,8.30
2019-05-16T03:07:32.878Z,8.30
2019-05-16T03:07:53.513Z,8.30
2019-05-16T03:08:31.901Z,8.30
2019-05-16T03:09:06.873Z,8.20
2019-05-16T03:09:42.584Z,8.20
2019-05-16T03:10:20.231Z,8.20
2019-05-16T03:10:55.442Z,8.20
2019-05-16T03:11:31.484Z,8.20
2019-05-16T03:12:06.709Z,8.20
2019-05-16T03:12:43.136Z,8.20
2019-05-16T03:13:21.965Z,8.20
2019-05-16T03:13:56.409Z,8.10
2019-05-16T03:14:32.196Z,8.10
2019-05-16T03:15:10.966Z,8.10
2019-05-16T03:15:50.823Z,8.10
2019-05-16T03:16:31.306Z,8.10
2019-05-16T03:17:05.315Z,8.10
2019-05-16T03:17:43.540Z,8.10
2019-05-16T03:18:21.476Z,8.10
2019-05-16T03:19:01.038Z,8.10
2019-05-16T03:19:37.059Z,8.10
2019-05-16T03:20:12.686Z,8.10
2019-05-16T03:20:50.964Z,8.10
2019-05-16T03:21:30.896Z,8.10
2019-05-16T03:22:06.705Z,8.00
2019-05-16T03:22:41.831Z,8.00
2019-05-16T03:23:16.977Z,8.00
2019-05-16T03:23:52.101Z,8.00
2019-05-16T03:24:30.804Z,7.90
2019-05-16T03:25:04.872Z,8.00
2019-05-16T03:25:41.789Z,8.00
2019-05-16T03:26:16.312Z,8.00
2019-05-16T03:26:51.606Z,8.00
2019-05-16T03:27:26.559Z,7.90
2019-05-16T03:28:04.622Z,8.00
2019-05-16T03:28:41.303Z,7.90
2019-05-16T03:29:16.277Z,7.90
2019-05-16T03:29:51.234Z,7.90
2019-05-16T03:30:26.487Z,7.90
2019-05-16T03:31:04.974Z,7.90
2019-05-16T03:31:43.735Z,7.90
2019-05-16T03:32:14.760Z,7.90
2019-05-16T03:32:54.126Z,7.90
2019-05-16T03:33:34.994Z,7.90
2019-05-16T03:34:07.472Z,7.90
2019-05-16T03:34:44.052Z,7.90
2019-05-16T03:35:16.862Z,7.90
2019-05-16T03:35:54.383Z,7.90
2019-05-16T03:36:34.000Z,7.90
2019-05-16T03:37:05.569Z,7.80
2019-05-16T03:37:51.520Z,7.90
2019-05-16T03:38:17.281Z,7.90
2019-05-16T03:38:52.325Z,7.90
2019-05-16T03:39:27.458Z,7.90
2019-05-16T03:40:02.242Z,7.90
2019-05-16T03:40:41.020Z,7.90
2019-05-16T03:41:14.691Z,7.90
2019-05-16T03:41:50.658Z,7.90
2019-05-16T03:42:25.734Z,7.90
2019-05-16T03:43:01.612Z,7.90
2019-05-16T03:43:36.629Z,7.90
2019-05-16T03:44:11.510Z,7.80
2019-05-16T03:44:46.668Z,7.90
2019-05-16T03:45:21.546Z,7.90
2019-05-16T03:45:56.588Z,7.80
2019-05-16T03:46:31.662Z,7.90
2019-05-16T03:47:06.435Z,7.90
2019-05-16T03:47:42.815Z,7.80
2019-05-16T03:48:21.394Z,7.80
2019-05-16T03:48:54.582Z,7.80
2019-05-16T03:49:31.228Z,7.80
2019-05-16T03:50:10.849Z,7.80
2019-05-16T03:50:44.310Z,7.80
2019-05-16T03:51:21.599Z,7.80
2019-05-16T03:51:56.021Z,7.80
2019-05-16T03:52:31.181Z,7.80
2019-05-16T03:53:06.278Z,7.80
2019-05-16T03:53:41.424Z,7.80
2019-05-16T03:54:16.186Z,7.80
2019-05-16T03:54:51.228Z,7.80
2019-05-16T03:55:26.322Z,7.80
2019-05-16T03:56:01.862Z,7.90
2019-05-16T03:56:37.097Z,7.90
2019-05-16T03:57:12.229Z,7.90
2019-05-16T03:57:47.117Z,7.90
2019-05-16T03:58:22.739Z,7.90
2019-05-16T03:59:00.678Z,7.90
2019-05-16T03:59:34.392Z,7.90
2019-05-16T04:00:11.754Z,7.80
2019-05-16T04:00:52.698Z,7.80
2019-05-16T04:01:31.106Z,7.80
2019-05-16T04:02:04.642Z,7.80
2019-05-16T04:02:41.940Z,7.90
2019-05-16T04:03:16.173Z,7.80
2019-05-16T04:03:51.527Z,7.80
2019-05-16T04:04:26.887Z,7.80
2019-05-16T04:05:02.427Z,7.80
2019-05-16T04:05:41.188Z,7.80
2019-05-16T04:06:14.325Z,7.80
2019-05-16T04:06:50.695Z,7.80
2019-05-16T04:07:31.439Z,7.80
2019-05-16T04:08:18.437Z,7.80
2019-05-16T04:08:41.915Z,7.80
2019-05-16T04:09:16.928Z,7.90
2019-05-16T04:09:52.069Z,7.90
2019-05-16T04:10:26.853Z,7.90
2019-05-16T04:11:01.810Z,7.80
2019-05-16T04:11:37.001Z,7.90
2019-05-16T04:12:11.775Z,7.90
2019-05-16T04:12:46.860Z,7.80
2019-05-16T04:13:22.845Z,7.80
2019-05-16T04:13:57.618Z,7.80
2019-05-16T04:14:32.563Z,7.80
2019-05-16T04:15:11.421Z,7.80
2019-05-16T04:15:45.036Z,7.80
2019-05-16T04:16:20.887Z,7.90
2019-05-16T04:16:56.228Z,7.90
2019-05-16T04:17:31.645Z,7.90
2019-05-16T04:18:06.907Z,7.90
2019-05-16T04:18:42.306Z,7.90
2019-05-16T04:19:17.023Z,7.90
2019-05-16T04:19:51.914Z,7.90
2019-05-16T04:20:27.145Z,7.90
2019-05-16T04:21:01.926Z,7.90
2019-05-16T04:21:37.073Z,7.90
2019-05-16T04:22:16.324Z,7.90
2019-05-16T04:22:51.471Z,7.80
2019-05-16T04:23:26.428Z,7.80
2019-05-16T04:24:01.839Z,7.80
2019-05-16T04:24:36.536Z,7.90
2019-05-16T04:25:13.059Z,7.90
2019-05-16T04:25:51.720Z,7.90
2019-05-16T04:26:24.598Z,7.90
2019-05-16T04:27:00.974Z,7.90
2019-05-16T04:27:36.328Z,7.90
2019-05-16T04:28:11.656Z,8.00
2019-05-16T04:28:46.860Z,8.00
2019-05-16T04:29:22.125Z,8.00
2019-05-16T04:29:56.891Z,8.00
2019-05-16T04:30:31.778Z,8.00
2019-05-16T04:31:06.919Z,8.00
2019-05-16T04:31:41.865Z,8.00
2019-05-16T04:32:16.921Z,8.00
2019-05-16T04:32:52.139Z,8.00
2019-05-16T04:33:26.835Z,8.00
2019-05-16T04:34:01.987Z,8.00
2019-05-16T04:34:37.134Z,8.00
2019-05-16T04:35:12.069Z,8.00
2019-05-16T04:35:46.940Z,8.00
2019-05-16T04:36:22.029Z,8.00
2019-05-16T04:36:56.801Z,8.10
2019-05-16T04:37:31.774Z,8.10
2019-05-16T04:38:06.894Z,8.10
2019-05-16T04:38:46.523Z,8.10
2019-05-16T04:39:20.868Z,8.10
2019-05-16T04:39:55.134Z,8.10
2019-05-16T04:40:31.175Z,8.10
2019-05-16T04:41:06.403Z,8.00
2019-05-16T04:41:41.640Z,8.00
2019-05-16T04:42:16.720Z,8.10
2019-05-16T04:42:51.706Z,8.10
2019-05-16T04:43:26.893Z,8.10
2019-05-16T04:44:04.894Z,8.10
2019-05-16T04:44:41.383Z,8.20
2019-05-16T04:45:15.257Z,8.20
2019-05-16T04:45:52.210Z,8.20
2019-05-16T04:46:26.646Z,8.20
2019-05-16T04:47:01.873Z,8.20
2019-05-16T04:47:36.754Z,8.20
2019-05-16T04:48:11.714Z,8.20
2019-05-16T04:48:46.869Z,8.20
2019-05-16T04:49:21.647Z,8.30
2019-05-16T04:49:56.624Z,8.30
2019-05-16T04:50:31.789Z,8.30
2019-05-16T04:51:06.550Z,8.30
2019-05-16T04:51:41.764Z,8.40
2019-05-16T04:52:16.944Z,8.40
2019-05-16T04:52:52.027Z,8.40
2019-05-16T04:53:27.485Z,8.40
2019-05-16T04:54:06.478Z,8.50
2019-05-16T04:54:41.950Z,8.50
2019-05-16T04:55:16.236Z,8.50
2019-05-16T04:55:52.250Z,8.50
2019-05-16T04:56:27.248Z,8.50
2019-05-16T04:57:02.238Z,8.50
2019-05-16T04:57:37.456Z,8.50
2019-05-16T04:58:12.288Z,8.50
2019-05-16T04:58:47.289Z,8.40
2019-05-16T04:59:22.438Z,8.40
2019-05-16T04:59:57.201Z,8.50
2019-05-16T05:00:32.201Z,8.50
2019-05-16T05:01:07.317Z,8.50
2019-05-16T05:01:42.081Z,8.50
2019-05-16T05:02:17.050Z,8.60
2019-05-16T05:02:52.217Z,8.60
2019-05-16T05:03:27.455Z,8.60
2019-05-16T05:04:10.727Z,8.60
2019-05-16T05:04:41.412Z,8.60
2019-05-16T05:05:16.228Z,8.60
2019-05-16T05:05:51.812Z,8.60
2019-05-16T05:06:27.277Z,8.60
2019-05-16T05:07:02.004Z,8.50
2019-05-16T05:07:36.867Z,8.50
2019-05-16T05:08:11.933Z,8.50
2019-05-16T05:08:54.009Z,8.50
2019-05-16T05:09:23.333Z,8.50
2019-05-16T05:10:00.531Z,8.50
2019-05-16T05:10:34.868Z,8.50
2019-05-16T05:11:10.803Z,8.60
2019-05-16T05:11:46.187Z,8.60
2019-05-16T05:12:21.093Z,8.50
2019-05-16T05:12:56.023Z,8.40
2019-05-16T05:13:31.163Z,8.40
2019-05-16T05:14:06.321Z,8.40
2019-05-16T05:14:41.738Z,8.40
2019-05-16T05:15:18.115Z,8.40
2019-05-16T05:15:54.576Z,8.30
2019-05-16T05:16:30.800Z,8.30
2019-05-16T05:17:05.933Z,8.30
2019-05-16T05:17:41.475Z,8.30
2019-05-16T05:18:16.623Z,8.30
2019-05-16T05:18:51.829Z,8.30
2019-05-16T05:19:26.538Z,8.30
2019-05-16T05:20:01.463Z,8.40
2019-05-16T05:20:36.807Z,8.40
2019-05-16T05:21:11.954Z,8.40
2019-05-16T05:21:46.862Z,8.40
2019-05-16T05:22:22.010Z,8.40
2019-05-16T05:22:56.703Z,8.40
2019-05-16T05:23:31.899Z,8.50
2019-05-16T05:24:07.143Z,8.50
2019-05-16T05:24:41.912Z,8.50
2019-05-16T05:25:16.960Z,8.50
2019-05-16T05:25:52.106Z,8.50
2019-05-16T05:26:26.902Z,8.60
2019-05-16T05:27:01.795Z,8.60
2019-05-16T05:27:36.854Z,8.60
2019-05-16T05:28:13.559Z,8.70
2019-05-16T05:28:50.569Z,8.70
2019-05-16T05:29:24.979Z,8.70
2019-05-16T05:30:01.063Z,8.70
2019-05-16T05:30:36.279Z,8.70
2019-05-16T05:31:11.432Z,8.80
2019-05-16T05:31:46.230Z,8.70
2019-05-16T05:32:21.215Z,8.80
2019-05-16T05:32:56.325Z,8.80
2019-05-16T05:33:31.165Z,8.80
2019-05-16T05:34:06.135Z,8.80
2019-05-16T05:34:41.349Z,8.80
2019-05-16T05:35:16.136Z,8.80
2019-05-16T05:35:51.285Z,8.90
2019-05-16T05:36:26.537Z,8.80
2019-05-16T05:37:01.307Z,8.90
2019-05-16T05:37:36.301Z,8.90
2019-05-16T05:38:11.424Z,8.80
2019-05-16T05:38:48.367Z,8.90
2019-05-16T05:39:22.897Z,8.90
2019-05-16T05:40:00.013Z,8.90
2019-05-16T05:40:34.414Z,8.90
2019-05-16T05:41:10.718Z,8.90
2019-05-16T05:41:46.052Z,8.90
2019-05-16T05:42:20.822Z,8.90
2019-05-16T05:42:55.799Z,8.80
2019-05-16T05:43:30.922Z,8.80
2019-05-16T05:44:05.937Z,8.80
2019-05-16T05:44:41.792Z,8.80
2019-05-16T05:45:17.121Z,8.70
2019-05-16T05:45:51.889Z,8.70
2019-05-16T05:46:26.846Z,8.70
2019-05-16T05:47:02.085Z,8.60
2019-05-16T05:47:36.937Z,8.60
2019-05-16T05:48:11.818Z,8.60
2019-05-16T05:48:46.890Z,8.60
2019-05-16T05:49:22.456Z,8.70
2019-05-16T05:49:57.493Z,8.60
2019-05-16T05:50:32.650Z,8.70
2019-05-16T05:51:07.428Z,8.70
2019-05-16T05:51:42.390Z,8.70
2019-05-16T05:52:17.460Z,8.70
2019-05-16T05:52:52.169Z,8.70
2019-05-16T05:53:27.118Z,8.70
2019-05-16T05:54:02.606Z,8.60
2019-05-16T05:54:37.416Z,8.60
2019-05-16T05:55:12.468Z,8.70
2019-05-16T05:55:47.621Z,8.70
2019-05-16T05:56:22.911Z,8.60
2019-05-16T05:56:57.804Z,8.70
2019-05-16T05:57:33.033Z,8.70
2019-05-16T05:58:09.907Z,8.60
2019-05-16T05:58:44.377Z,8.60
2019-05-16T05:59:20.145Z,8.60
2019-05-16T05:59:55.188Z,8.50
2019-05-16T06:00:30.488Z,8.60
2019-05-16T06:01:05.750Z,8.50
2019-05-16T06:01:40.845Z,8.60
2019-05-16T06:02:16.000Z,8.50
2019-05-16T06:02:51.176Z,8.60
2019-05-16T06:03:25.941Z,8.60
2019-05-16T06:04:00.960Z,8.60
2019-05-16T06:04:36.108Z,8.70
2019-05-16T06:05:10.944Z,8.70
2019-05-16T06:05:45.867Z,8.70
2019-05-16T06:06:21.261Z,8.60
2019-05-16T06:06:56.282Z,8.60
2019-05-16T06:07:31.559Z,8.60
2019-05-16T06:08:06.632Z,8.70
2019-05-16T06:08:41.420Z,8.60
2019-05-16T06:09:26.269Z,8.60
2019-05-16T06:09:56.627Z,8.60
2019-05-16T06:10:30.548Z,8.70
2019-05-16T06:11:05.522Z,8.70
2019-05-16T06:11:40.702Z,8.80
2019-05-16T06:12:15.471Z,8.80
2019-05-16T06:12:50.437Z,8.80
2019-05-16T06:13:25.582Z,8.80
2019-05-16T06:14:00.512Z,8.90
2019-05-16T06:14:35.531Z,8.90
2019-05-16T06:15:12.821Z,9.00
2019-05-16T06:15:47.524Z,9.00
2019-05-16T06:16:22.474Z,9.10
2019-05-16T06:17:00.199Z,9.20
2019-05-16T06:17:34.011Z,9.20
2019-05-16T06:18:10.806Z,9.20
2019-05-16T06:18:45.755Z,9.30
2019-05-16T06:19:20.525Z,9.30
2019-05-16T06:19:55.531Z,9.40
2019-05-16T06:20:30.853Z,9.40
2019-05-16T06:21:05.983Z,9.40
2019-05-16T06:21:44.791Z,9.50
2019-05-16T06:22:17.786Z,9.50
2019-05-16T06:22:52.566Z,9.50
2019-05-16T06:23:27.530Z,9.50
2019-05-16T06:24:03.578Z,9.50
2019-05-16T06:24:39.891Z,9.60
2019-05-16T06:25:15.146Z,9.60
2019-05-16T06:25:51.050Z,9.60
2019-05-16T06:26:25.896Z,9.70
2019-05-16T06:27:01.072Z,9.70
2019-05-16T06:27:36.193Z,9.70
2019-05-16T06:28:10.914Z,9.70
2019-05-16T06:28:45.797Z,9.70
2019-05-16T06:29:21.099Z,9.70
2019-05-16T06:29:57.429Z,9.60
2019-05-16T06:30:32.486Z,9.50
2019-05-16T06:31:07.552Z,9.50
2019-05-16T06:31:42.321Z,9.50
2019-05-16T06:32:17.243Z,9.50
2019-05-16T06:32:52.309Z,9.60
2019-05-16T06:33:27.027Z,9.50
2019-05-16T06:34:08.359Z,9.50
2019-05-16T06:34:40.391Z,9.50
2019-05-16T06:35:16.038Z,9.50
2019-05-16T06:35:51.219Z,9.50
2019-05-16T06:36:26.861Z,9.50
2019-05-16T06:37:01.630Z,9.40
2019-05-16T06:37:36.576Z,9.50
2019-05-16T06:38:11.745Z,9.40
2019-05-16T06:38:46.436Z,9.50
2019-05-16T06:39:21.487Z,9.50
2019-05-16T06:39:56.627Z,9.50
2019-05-16T06:40:31.334Z,9.50
2019-05-16T06:41:06.364Z,9.50
2019-05-16T06:41:41.592Z,9.50
2019-05-16T06:42:16.355Z,9.50
2019-05-16T06:42:51.308Z,9.40
2019-05-16T06:43:26.454Z,9.50
2019-05-16T06:44:01.218Z,9.50
2019-05-16T06:44:36.168Z,9.50
2019-05-16T06:45:11.508Z,9.50
2019-05-16T06:45:46.271Z,9.50
2019-05-16T06:46:21.240Z,9.50
2019-05-16T06:47:15.004Z,9.60
2019-05-16T06:47:33.077Z,9.60
2019-05-16T06:48:10.003Z,9.70
2019-05-16T06:48:45.247Z,9.70
2019-05-16T06:49:20.024Z,9.70
2019-05-16T06:49:54.912Z,9.50
2019-05-16T06:50:30.063Z,9.50
2019-05-16T06:51:04.880Z,9.50
2019-05-16T06:51:39.918Z,9.60
2019-05-16T06:52:15.077Z,9.60
2019-05-16T06:52:50.276Z,9.70
2019-05-16T06:53:25.375Z,9.70
2019-05-16T06:54:00.629Z,9.70
2019-05-16T06:54:35.419Z,9.80
2019-05-16T06:55:10.539Z,9.80
2019-05-16T06:55:45.606Z,9.80
2019-05-16T06:56:20.684Z,9.90
2019-05-16T06:56:55.603Z,9.90
2019-05-16T06:57:30.762Z,9.90
2019-05-16T06:58:05.531Z,10.00
2019-05-16T06:58:47.643Z,10.00
2019-05-16T06:59:17.201Z,10.00
2019-05-16T06:59:51.970Z,10.00
2019-05-16T07:00:29.926Z,9.90
2019-05-16T07:01:04.302Z,10.00
2019-05-16T07:01:40.437Z,10.00
2019-05-16T07:02:27.626Z,10.00
2019-05-16T07:02:52.340Z,10.00
2019-05-16T07:03:27.114Z,9.90
2019-05-16T07:04:04.689Z,9.80
2019-05-16T07:04:39.804Z,9.90
2019-05-16T07:05:14.979Z,9.90
2019-05-16T07:05:50.658Z,9.90
2019-05-16T07:06:47.610Z,9.90
2019-05-16T07:07:03.209Z,10.00
2019-05-16T07:07:40.499Z,10.00
2019-05-16T07:08:15.160Z,10.10
2019-05-16T07:08:50.786Z,10.10
2019-05-16T07:09:25.986Z,10.20
2019-05-16T07:10:04.511Z,10.20
2019-05-16T07:10:39.668Z,10.20
2019-05-16T07:11:14.405Z,10.30
2019-05-16T07:11:50.439Z,10.30
2019-05-16T07:12:25.436Z,10.30
2019-05-16T07:13:00.781Z,10.30
2019-05-16T07:13:36.063Z,10.30
2019-05-16T07:14:11.124Z,10.30
2019-05-16T07:14:46.094Z,10.20
2019-05-16T07:15:21.303Z,10.20
2019-05-16T07:15:56.075Z,10.20
2019-05-16T07:16:31.452Z,10.30
2019-05-16T07:17:06.557Z,10.20
2019-05-16T07:17:41.318Z,10.30
2019-05-16T07:18:16.280Z,10.30
2019-05-16T07:18:51.464Z,10.30
2019-05-16T07:19:26.259Z,10.30
2019-05-16T07:20:01.232Z,10.30
2019-05-16T07:20:36.306Z,10.30
2019-05-16T07:21:11.099Z,10.30
2019-05-16T07:21:46.091Z,10.30
2019-05-16T07:22:21.226Z,10.30
2019-05-16T07:22:56.007Z,10.20
2019-05-16T07:23:30.954Z,10.30
2019-05-16T07:24:06.038Z,10.20
2019-05-16T07:24:40.748Z,10.10
2019-05-16T07:25:16.282Z,10.10
2019-05-16T07:25:51.433Z,10.10
2019-05-16T07:26:26.228Z,10.00
2019-05-16T07:27:01.215Z,10.00
2019-05-16T07:27:36.326Z,9.90
2019-05-16T07:28:11.078Z,9.90
2019-05-16T07:28:45.953Z,9.90
2019-05-16T07:29:21.168Z,10.00
2019-05-16T07:29:57.819Z,10.00
2019-05-16T07:30:33.167Z,10.00
2019-05-16T07:31:15.649Z,10.00
2019-05-16T07:31:45.228Z,10.10
2019-05-16T07:32:20.621Z,10.00
2019-05-16T07:32:55.762Z,10.00
2019-05-16T07:33:31.263Z,10.00
2019-05-16T07:34:06.441Z,10.00
2019-05-16T07:34:41.652Z,10.00
2019-05-16T07:35:16.790Z,10.10
2019-05-16T07:35:51.737Z,10.10
2019-05-16T07:36:26.887Z,10.10
2019-05-16T07:37:01.640Z,10.20
2019-05-16T07:37:36.601Z,10.20
2019-05-16T07:38:12.416Z,10.20
2019-05-16T07:38:47.448Z,10.20
2019-05-16T07:39:22.340Z,10.30
2019-05-16T07:40:01.065Z,10.40
2019-05-16T07:40:33.909Z,10.40
2019-05-16T07:41:13.731Z,10.40
2019-05-16T07:41:45.642Z,10.50
2019-05-16T07:42:20.444Z,10.50
2019-05-16T07:42:55.394Z,10.60
2019-05-16T07:43:31.088Z,10.60
2019-05-16T07:44:06.079Z,10.60
2019-05-16T07:44:41.004Z,10.60
2019-05-16T07:45:16.428Z,10.70
2019-05-16T07:45:51.663Z,10.70
2019-05-16T07:46:26.740Z,10.70
2019-05-16T07:47:01.887Z,10.80
2019-05-16T07:47:36.724Z,10.80
2019-05-16T07:48:11.706Z,10.90
2019-05-16T07:48:46.844Z,10.90
2019-05-16T07:49:21.607Z,10.90
2019-05-16T07:49:56.478Z,10.90
2019-05-16T07:50:32.332Z,10.90